sensor_id;sensor_type;location;lat;lon;timestamp;pressure;altitude;pressure_sealevel;temperature;humidity
79028;BME280;68427;48.476;19.102;2023-07-31T00:01:02;97256.19;;;13.50;87.81
79028;BME280;68427;48.476;19.102;2023-07-31T00:03:27;97251.38;;;13.47;88.36
79028;BME280;68427;48.476;19.102;2023-07-31T00:05:54;97252.38;;;13.46;88.35
79028;BME280;68427;48.476;19.102;2023-07-31T00:08:20;97251.78;;;13.44;88.82
79028;BME280;68427;48.476;19.102;2023-07-31T00:10:46;97251.22;;;13.42;87.65
79028;BME280;68427;48.476;19.102;2023-07-31T00:13:12;97245.81;;;13.37;88.73
79028;BME280;68427;48.476;19.102;2023-07-31T00:15:37;97251.28;;;13.35;88.48
79028;BME280;68427;48.476;19.102;2023-07-31T00:18:03;97248.06;;;13.33;88.20
79028;BME280;68427;48.476;19.102;2023-07-31T00:20:29;97250.09;;;13.31;87.74
79028;BME280;68427;48.476;19.102;2023-07-31T00:22:56;97251.75;;;13.26;88.42
79028;BME280;68427;48.476;19.102;2023-07-31T00:25:21;97265.34;;;13.23;87.65
79028;BME280;68427;48.476;19.102;2023-07-31T00:27:47;97265.78;;;13.19;88.18
79028;BME280;68427;48.476;19.102;2023-07-31T00:30:13;97269.84;;;13.15;88.31
79028;BME280;68427;48.476;19.102;2023-07-31T00:32:38;97266.03;;;13.11;88.67
79028;BME280;68427;48.476;19.102;2023-07-31T00:35:05;97271.72;;;13.08;89.21
79028;BME280;68427;48.476;19.102;2023-07-31T00:37:30;97272.16;;;13.05;90.04
79028;BME280;68427;48.476;19.102;2023-07-31T00:39:58;97267.72;;;13.06;89.55
79028;BME280;68427;48.476;19.102;2023-07-31T00:42:24;97262.69;;;13.04;89.54
79028;BME280;68427;48.476;19.102;2023-07-31T00:44:49;97268.16;;;13.03;88.97
79028;BME280;68427;48.476;19.102;2023-07-31T00:47:15;97262.69;;;13.04;89.32
79028;BME280;68427;48.476;19.102;2023-07-31T00:49:41;97260.06;;;13.04;88.62
79028;BME280;68427;48.476;19.102;2023-07-31T00:52:09;97261.66;;;13.05;89.74
79028;BME280;68427;48.476;19.102;2023-07-31T00:54:35;97267.94;;;13.04;90.87
79028;BME280;68427;48.476;19.102;2023-07-31T00:57:03;97262.44;;;13.06;89.30
79028;BME280;68427;48.476;19.102;2023-07-31T00:59:29;97253.97;;;13.04;89.14
79028;BME280;68427;48.476;19.102;2023-07-31T01:01:55;97264.28;;;13.05;88.79
79028;BME280;68427;48.476;19.102;2023-07-31T01:04:21;97260.31;;;12.96;89.45
79028;BME280;68427;48.476;19.102;2023-07-31T01:06:52;97254.25;;;12.95;89.13
79028;BME280;68427;48.476;19.102;2023-07-31T01:09:27;97250.66;;;12.90;90.95
79028;BME280;68427;48.476;19.102;2023-07-31T01:11:57;97252.25;;;12.91;90.88
79028;BME280;68427;48.476;19.102;2023-07-31T01:14:26;97253.13;;;12.85;91.70
79028;BME280;68427;48.476;19.102;2023-07-31T01:16:52;97259.16;;;12.92;92.19
79028;BME280;68427;48.476;19.102;2023-07-31T01:19:21;97258.31;;;12.91;92.27
79028;BME280;68427;48.476;19.102;2023-07-31T01:22:06;97256.13;;;12.88;91.65
79028;BME280;68427;48.476;19.102;2023-07-31T01:24:42;97256.50;;;12.92;91.39
79028;BME280;68427;48.476;19.102;2023-07-31T01:27:21;97255.91;;;12.90;90.93
79028;BME280;68427;48.476;19.102;2023-07-31T01:29:50;97262.63;;;12.86;91.53
79028;BME280;68427;48.476;19.102;2023-07-31T01:32:19;97259.38;;;12.84;89.90
79028;BME280;68427;48.476;19.102;2023-07-31T01:34:46;97254.13;;;12.84;90.35
79028;BME280;68427;48.476;19.102;2023-07-31T01:37:13;97254.81;;;12.79;91.15
79028;BME280;68427;48.476;19.102;2023-07-31T01:39:38;97262.88;;;12.78;90.46
79028;BME280;68427;48.476;19.102;2023-07-31T01:42:04;97255.22;;;12.76;91.22
79028;BME280;68427;48.476;19.102;2023-07-31T01:44:32;97263.72;;;12.71;90.92
79028;BME280;68427;48.476;19.102;2023-07-31T01:46:57;97252.25;;;12.66;91.16
79028;BME280;68427;48.476;19.102;2023-07-31T01:49:25;97257.16;;;12.62;91.51
79028;BME280;68427;48.476;19.102;2023-07-31T01:51:51;97259.78;;;12.62;91.72
79028;BME280;68427;48.476;19.102;2023-07-31T01:54:17;97262.41;;;12.62;91.15
79028;BME280;68427;48.476;19.102;2023-07-31T01:56:42;97267.66;;;12.62;90.87
79028;BME280;68427;48.476;19.102;2023-07-31T01:59:08;97268.47;;;12.63;90.92
79028;BME280;68427;48.476;19.102;2023-07-31T02:01:35;97267.44;;;12.64;90.63
79028;BME280;68427;48.476;19.102;2023-07-31T02:04:01;97262.41;;;12.62;90.68
79028;BME280;68427;48.476;19.102;2023-07-31T02:06:26;97274.75;;;12.62;90.84
79028;BME280;68427;48.476;19.102;2023-07-31T02:08:52;97269.69;;;12.60;91.04
79028;BME280;68427;48.476;19.102;2023-07-31T02:11:18;97265.22;;;12.61;91.67
79028;BME280;68427;48.476;19.102;2023-07-31T02:13:44;97261.22;;;12.58;90.99
79028;BME280;68427;48.476;19.102;2023-07-31T02:16:10;97255.00;;;12.52;91.31
79028;BME280;68427;48.476;19.102;2023-07-31T02:18:37;97260.25;;;12.52;90.48
79028;BME280;68427;48.476;19.102;2023-07-31T02:21:02;97266.91;;;12.55;90.30
79028;BME280;68427;48.476;19.102;2023-07-31T02:23:28;97273.59;;;12.51;90.41
79028;BME280;68427;48.476;19.102;2023-07-31T02:25:54;97253.97;;;12.53;89.72
79028;BME280;68427;48.476;19.102;2023-07-31T02:28:19;97262.28;;;12.50;89.39
79028;BME280;68427;48.476;19.102;2023-07-31T02:30:45;97259.88;;;12.49;90.00
79028;BME280;68427;48.476;19.102;2023-07-31T02:33:14;97260.09;;;12.47;90.19
79028;BME280;68427;48.476;19.102;2023-07-31T02:35:42;97268.75;;;12.48;89.46
79028;BME280;68427;48.476;19.102;2023-07-31T02:38:07;97261.50;;;12.43;89.42
79028;BME280;68427;48.476;19.102;2023-07-31T02:40:33;97257.47;;;12.41;89.35
79028;BME280;68427;48.476;19.102;2023-07-31T02:42:59;97267.00;;;12.42;89.31
79028;BME280;68427;48.476;19.102;2023-07-31T02:45:25;97271.03;;;12.38;89.17
79028;BME280;68427;48.476;19.102;2023-07-31T02:47:50;97266.00;;;12.36;89.66
79028;BME280;68427;48.476;19.102;2023-07-31T02:50:16;97265.47;;;12.27;91.33
79028;BME280;68427;48.476;19.102;2023-07-31T02:52:43;97272.97;;;12.24;90.70
79028;BME280;68427;48.476;19.102;2023-07-31T02:55:09;97264.09;;;12.18;90.53
79028;BME280;68427;48.476;19.102;2023-07-31T02:57:34;97269.75;;;12.15;90.34
79028;BME280;68427;48.476;19.102;2023-07-31T03:00:00;97274.00;;;12.16;90.04
79028;BME280;68427;48.476;19.102;2023-07-31T03:02:26;97272.59;;;12.14;90.92
79028;BME280;68427;48.476;19.102;2023-07-31T03:04:52;97277.84;;;12.14;90.41
79028;BME280;68427;48.476;19.102;2023-07-31T03:07:17;97275.44;;;12.12;90.81
79028;BME280;68427;48.476;19.102;2023-07-31T03:09:45;97270.81;;;12.07;91.14
79028;BME280;68427;48.476;19.102;2023-07-31T03:12:10;97282.34;;;12.06;91.25
79028;BME280;68427;48.476;19.102;2023-07-31T03:14:36;97280.47;;;12.14;92.11
79028;BME280;68427;48.476;19.102;2023-07-31T03:17:03;97286.91;;;12.18;91.34
79028;BME280;68427;48.476;19.102;2023-07-31T03:19:30;97285.50;;;12.22;91.90
79028;BME280;68427;48.476;19.102;2023-07-31T03:21:56;97296.00;;;12.22;91.57
79028;BME280;68427;48.476;19.102;2023-07-31T03:24:22;97282.88;;;12.22;92.38
79028;BME280;68427;48.476;19.102;2023-07-31T03:26:49;97287.72;;;12.18;92.18
79028;BME280;68427;48.476;19.102;2023-07-31T03:29:14;97286.72;;;12.19;91.88
79028;BME280;68427;48.476;19.102;2023-07-31T03:31:40;97284.91;;;12.20;91.80
79028;BME280;68427;48.476;19.102;2023-07-31T03:34:06;97283.25;;;12.19;91.71
79028;BME280;68427;48.476;19.102;2023-07-31T03:36:31;97281.47;;;12.19;91.48
79028;BME280;68427;48.476;19.102;2023-07-31T03:38:57;97286.28;;;12.22;91.64
79028;BME280;68427;48.476;19.102;2023-07-31T03:41:23;97278.22;;;12.24;91.08
79028;BME280;68427;48.476;19.102;2023-07-31T03:43:51;97286.66;;;12.26;91.76
79028;BME280;68427;48.476;19.102;2023-07-31T03:46:21;97289.25;;;12.32;90.89
79028;BME280;68427;48.476;19.102;2023-07-31T03:48:47;97282.16;;;12.40;90.24
79028;BME280;68427;48.476;19.102;2023-07-31T03:51:13;97283.72;;;12.47;90.27
79028;BME280;68427;48.476;19.102;2023-07-31T03:53:39;97279.22;;;12.54;90.39
79028;BME280;68427;48.476;19.102;2023-07-31T03:56:05;97287.28;;;12.60;90.13
79028;BME280;68427;48.476;19.102;2023-07-31T03:58:30;97283.19;;;12.64;90.02
79028;BME280;68427;48.476;19.102;2023-07-31T04:00:57;97284.38;;;12.68;90.35
79028;BME280;68427;48.476;19.102;2023-07-31T04:03:23;97271.63;;;12.71;91.19
79028;BME280;68427;48.476;19.102;2023-07-31T04:05:49;97285.75;;;12.77;90.41
79028;BME280;68427;48.476;19.102;2023-07-31T04:08:14;97280.41;;;12.84;90.45
79028;BME280;68427;48.476;19.102;2023-07-31T04:10:40;97279.34;;;12.91;89.78
79028;BME280;68427;48.476;19.102;2023-07-31T04:13:06;97281.72;;;13.00;90.46
79028;BME280;68427;48.476;19.102;2023-07-31T04:15:31;97276.41;;;13.06;90.06
79028;BME280;68427;48.476;19.102;2023-07-31T04:17:58;97268.41;;;13.19;90.11
79028;BME280;68427;48.476;19.102;2023-07-31T04:20:24;97262.44;;;13.31;90.42
79028;BME280;68427;48.476;19.102;2023-07-31T04:22:50;97253.00;;;13.42;89.87
79028;BME280;68427;48.476;19.102;2023-07-31T04:25:15;97253.09;;;13.53;90.70
79028;BME280;68427;48.476;19.102;2023-07-31T04:27:41;97261.28;;;13.64;89.56
79028;BME280;68427;48.476;19.102;2023-07-31T04:30:07;97258.13;;;13.73;90.27
79028;BME280;68427;48.476;19.102;2023-07-31T04:32:33;97258.88;;;13.80;89.70
79028;BME280;68427;48.476;19.102;2023-07-31T04:35:02;97255.56;;;13.85;89.75
79028;BME280;68427;48.476;19.102;2023-07-31T04:37:27;97252.50;;;13.88;90.46
79028;BME280;68427;48.476;19.102;2023-07-31T04:39:53;97257.44;;;13.96;90.18
79028;BME280;68427;48.476;19.102;2023-07-31T04:42:19;97247.88;;;14.02;89.44
79028;BME280;68427;48.476;19.102;2023-07-31T04:44:44;97252.03;;;14.10;89.08
79028;BME280;68427;48.476;19.102;2023-07-31T04:47:10;97258.44;;;14.14;90.00
79028;BME280;68427;48.476;19.102;2023-07-31T04:49:36;97259.16;;;14.21;89.78
79028;BME280;68427;48.476;19.102;2023-07-31T04:52:04;97252.56;;;14.30;89.70
79028;BME280;68427;48.476;19.102;2023-07-31T04:54:30;97252.81;;;14.40;89.69
79028;BME280;68427;48.476;19.102;2023-07-31T04:56:55;97242.75;;;14.49;89.67
79028;BME280;68427;48.476;19.102;2023-07-31T04:59:21;97244.97;;;14.64;90.00
79028;BME280;68427;48.476;19.102;2023-07-31T05:01:47;97248.22;;;14.78;89.82
79028;BME280;68427;48.476;19.102;2023-07-31T05:04:13;97256.72;;;14.91;90.21
79028;BME280;68427;48.476;19.102;2023-07-31T05:06:39;97260.41;;;15.02;89.74
79028;BME280;68427;48.476;19.102;2023-07-31T05:09:06;97262.13;;;15.08;89.16
79028;BME280;68427;48.476;19.102;2023-07-31T05:11:33;97269.00;;;15.21;89.42
79028;BME280;68427;48.476;19.102;2023-07-31T05:13:59;97266.69;;;15.37;89.29
79028;BME280;68427;48.476;19.102;2023-07-31T05:16:25;97270.81;;;15.56;89.25
79028;BME280;68427;48.476;19.102;2023-07-31T05:18:50;97268.81;;;15.87;88.71
79028;BME280;68427;48.476;19.102;2023-07-31T05:21:16;97272.19;;;16.11;87.94
79028;BME280;68427;48.476;19.102;2023-07-31T05:23:42;97269.50;;;16.23;86.82
79028;BME280;68427;48.476;19.102;2023-07-31T05:26:09;97272.88;;;16.35;85.97
79028;BME280;68427;48.476;19.102;2023-07-31T05:28:37;97268.44;;;16.52;83.57
79028;BME280;68427;48.476;19.102;2023-07-31T05:31:04;97268.41;;;16.81;84.19
79028;BME280;68427;48.476;19.102;2023-07-31T05:33:30;97272.59;;;17.11;85.17
79028;BME280;68427;48.476;19.102;2023-07-31T05:35:56;97276.09;;;17.33;83.78
79028;BME280;68427;48.476;19.102;2023-07-31T05:38:22;97267.63;;;17.53;83.57
79028;BME280;68427;48.476;19.102;2023-07-31T05:40:48;97260.44;;;17.92;79.84
79028;BME280;68427;48.476;19.102;2023-07-31T05:43:15;97255.28;;;18.30;77.97
79028;BME280;68427;48.476;19.102;2023-07-31T05:45:42;97261.91;;;18.60;76.38
79028;BME280;68427;48.476;19.102;2023-07-31T05:48:08;97253.13;;;18.81;75.46
79028;BME280;68427;48.476;19.102;2023-07-31T05:50:33;97259.09;;;18.98;72.42
79028;BME280;68427;48.476;19.102;2023-07-31T05:52:59;97261.44;;;19.37;71.71
79028;BME280;68427;48.476;19.102;2023-07-31T05:55:25;97261.53;;;19.53;72.77
79028;BME280;68427;48.476;19.102;2023-07-31T05:57:54;97263.44;;;19.62;70.23
79028;BME280;68427;48.476;19.102;2023-07-31T06:00:21;97268.81;;;19.68;68.90
79028;BME280;68427;48.476;19.102;2023-07-31T06:02:47;97263.34;;;19.95;70.63
79028;BME280;68427;48.476;19.102;2023-07-31T06:05:13;97267.16;;;20.24;69.20
79028;BME280;68427;48.476;19.102;2023-07-31T06:07:39;97270.16;;;20.59;66.58
79028;BME280;68427;48.476;19.102;2023-07-31T06:10:05;97270.19;;;20.84;63.51
79028;BME280;68427;48.476;19.102;2023-07-31T06:12:31;97274.94;;;21.28;61.95
79028;BME280;68427;48.476;19.102;2023-07-31T06:14:57;97269.53;;;21.74;58.30
79028;BME280;68427;48.476;19.102;2023-07-31T06:17:24;97271.28;;;22.49;58.96
79028;BME280;68427;48.476;19.102;2023-07-31T06:19:51;97276.66;;;22.83;56.26
79028;BME280;68427;48.476;19.102;2023-07-31T06:22:17;97271.66;;;23.11;54.18
79028;BME280;68427;48.476;19.102;2023-07-31T06:24:43;97268.09;;;23.21;55.33
79028;BME280;68427;48.476;19.102;2023-07-31T06:27:09;97260.44;;;22.75;54.59
79028;BME280;68427;48.476;19.102;2023-07-31T06:29:34;97246.81;;;22.37;53.83
79028;BME280;68427;48.476;19.102;2023-07-31T06:32:00;97251.25;;;22.07;54.67
79028;BME280;68427;48.476;19.102;2023-07-31T06:34:27;97250.34;;;21.67;54.40
79028;BME280;68427;48.476;19.102;2023-07-31T06:36:53;97246.69;;;21.32;55.51
79028;BME280;68427;48.476;19.102;2023-07-31T06:39:19;97260.56;;;21.14;57.30
79028;BME280;68427;48.476;19.102;2023-07-31T06:41:44;97264.31;;;21.03;56.50
79028;BME280;68427;48.476;19.102;2023-07-31T06:44:10;97264.06;;;21.09;56.99
79028;BME280;68427;48.476;19.102;2023-07-31T06:46:36;97257.38;;;21.22;58.99
79028;BME280;68427;48.476;19.102;2023-07-31T06:49:02;97259.72;;;21.60;56.47
79028;BME280;68427;48.476;19.102;2023-07-31T06:51:29;97260.31;;;22.06;54.38
79028;BME280;68427;48.476;19.102;2023-07-31T06:53:56;97257.69;;;22.51;51.41
79028;BME280;68427;48.476;19.102;2023-07-31T06:56:22;97266.47;;;23.20;51.35
79028;BME280;68427;48.476;19.102;2023-07-31T06:58:48;97272.88;;;23.24;50.81
79028;BME280;68427;48.476;19.102;2023-07-31T07:01:13;97269.63;;;23.27;49.30
79028;BME280;68427;48.476;19.102;2023-07-31T07:03:39;97266.06;;;23.37;50.43
79028;BME280;68427;48.476;19.102;2023-07-31T07:06:05;97268.66;;;23.42;49.39
79028;BME280;68427;48.476;19.102;2023-07-31T07:08:32;97272.38;;;23.75;46.99
79028;BME280;68427;48.476;19.102;2023-07-31T07:10:58;97268.47;;;24.67;45.82
79028;BME280;68427;48.476;19.102;2023-07-31T07:13:23;97270.78;;;25.53;44.65
79028;BME280;68427;48.476;19.102;2023-07-31T07:15:52;97276.66;;;25.97;43.18
79028;BME280;68427;48.476;19.102;2023-07-31T07:18:18;97270.03;;;26.30;42.67
79028;BME280;68427;48.476;19.102;2023-07-31T07:20:46;97272.72;;;26.30;43.22
79028;BME280;68427;48.476;19.102;2023-07-31T07:23:13;97272.47;;;25.91;44.15
79028;BME280;68427;48.476;19.102;2023-07-31T07:25:40;97274.75;;;25.83;42.57
79028;BME280;68427;48.476;19.102;2023-07-31T07:28:05;97270.16;;;25.70;43.75
79028;BME280;68427;48.476;19.102;2023-07-31T07:30:31;97275.94;;;25.63;43.25
79028;BME280;68427;48.476;19.102;2023-07-31T07:32:57;97270.97;;;25.84;42.79
79028;BME280;68427;48.476;19.102;2023-07-31T07:35:22;97265.41;;;25.81;44.05
79028;BME280;68427;48.476;19.102;2023-07-31T07:37:48;97266.69;;;25.70;42.45
79028;BME280;68427;48.476;19.102;2023-07-31T07:40:15;97270.94;;;25.43;43.54
79028;BME280;68427;48.476;19.102;2023-07-31T07:42:42;97279.00;;;25.43;43.86
79028;BME280;68427;48.476;19.102;2023-07-31T07:45:08;97279.91;;;25.38;43.72
79028;BME280;68427;48.476;19.102;2023-07-31T07:47:34;97274.84;;;25.51;44.99
79028;BME280;68427;48.476;19.102;2023-07-31T07:49:59;97276.22;;;26.17;43.54
79028;BME280;68427;48.476;19.102;2023-07-31T07:52:25;97272.06;;;26.47;41.79
79028;BME280;68427;48.476;19.102;2023-07-31T07:54:51;97272.53;;;26.63;40.19
79028;BME280;68427;48.476;19.102;2023-07-31T07:57:16;97275.44;;;26.53;42.45
79028;BME280;68427;48.476;19.102;2023-07-31T07:59:43;97271.75;;;26.13;40.92
79028;BME280;68427;48.476;19.102;2023-07-31T08:02:09;97270.47;;;26.24;42.25
79028;BME280;68427;48.476;19.102;2023-07-31T08:04:35;97279.09;;;25.38;43.54
79028;BME280;68427;48.476;19.102;2023-07-31T08:07:00;97274.00;;;24.90;44.56
79028;BME280;68427;48.476;19.102;2023-07-31T08:09:26;97280.44;;;24.89;45.02
79028;BME280;68427;48.476;19.102;2023-07-31T08:11:52;97276.81;;;24.66;45.13
79028;BME280;68427;48.476;19.102;2023-07-31T08:14:17;97272.16;;;24.33;45.61
79028;BME280;68427;48.476;19.102;2023-07-31T08:16:45;97273.16;;;24.19;47.34
79028;BME280;68427;48.476;19.102;2023-07-31T08:19:11;97285.22;;;24.35;44.98
79028;BME280;68427;48.476;19.102;2023-07-31T08:21:36;97283.75;;;24.05;44.56
79028;BME280;68427;48.476;19.102;2023-07-31T08:24:02;97286.50;;;24.00;45.43
79028;BME280;68427;48.476;19.102;2023-07-31T08:26:28;97285.16;;;24.40;45.35
79028;BME280;68427;48.476;19.102;2023-07-31T08:28:53;97286.22;;;24.63;44.51
79028;BME280;68427;48.476;19.102;2023-07-31T08:31:19;97284.84;;;24.98;43.39
79028;BME280;68427;48.476;19.102;2023-07-31T08:33:46;97281.34;;;25.17;44.51
79028;BME280;68427;48.476;19.102;2023-07-31T08:36:12;97291.50;;;25.34;42.65
79028;BME280;68427;48.476;19.102;2023-07-31T08:38:37;97287.53;;;24.98;44.45
79028;BME280;68427;48.476;19.102;2023-07-31T08:41:03;97290.63;;;24.54;44.62
79028;BME280;68427;48.476;19.102;2023-07-31T08:43:30;97291.75;;;24.29;46.13
79028;BME280;68427;48.476;19.102;2023-07-31T08:45:56;97291.16;;;24.32;45.46
79028;BME280;68427;48.476;19.102;2023-07-31T08:48:23;97293.84;;;24.89;46.07
79028;BME280;68427;48.476;19.102;2023-07-31T08:50:51;97281.00;;;25.65;43.74
79028;BME280;68427;48.476;19.102;2023-07-31T08:53:17;97290.25;;;26.00;41.92
79028;BME280;68427;48.476;19.102;2023-07-31T08:55:44;97295.47;;;26.47;41.35
79028;BME280;68427;48.476;19.102;2023-07-31T08:58:10;97287.03;;;27.61;39.46
79028;BME280;68427;48.476;19.102;2023-07-31T09:00:38;97298.25;;;28.52;38.50
79028;BME280;68427;48.476;19.102;2023-07-31T09:03:08;97291.41;;;30.01;34.47
79028;BME280;68427;48.476;19.102;2023-07-31T09:05:36;97277.56;;;31.90;30.90
79028;BME280;68427;48.476;19.102;2023-07-31T09:08:04;97270.81;;;32.61;30.82
79028;BME280;68427;48.476;19.102;2023-07-31T09:10:30;97277.91;;;33.85;28.28
79028;BME280;68427;48.476;19.102;2023-07-31T09:12:56;97279.91;;;33.88;28.97
79028;BME280;68427;48.476;19.102;2023-07-31T09:15:23;97281.59;;;34.09;27.32
79028;BME280;68427;48.476;19.102;2023-07-31T09:17:59;97268.53;;;34.92;26.05
79028;BME280;68427;48.476;19.102;2023-07-31T09:20:25;97273.19;;;35.80;24.86
79028;BME280;68427;48.476;19.102;2023-07-31T09:22:51;97269.88;;;35.44;23.30
79028;BME280;68427;48.476;19.102;2023-07-31T09:25:19;97260.41;;;34.96;26.33
79028;BME280;68427;48.476;19.102;2023-07-31T09:27:46;97261.50;;;33.97;26.04
79028;BME280;68427;48.476;19.102;2023-07-31T09:30:12;97260.78;;;33.05;28.01
79028;BME280;68427;48.476;19.102;2023-07-31T09:32:38;97253.19;;;32.55;31.10
79028;BME280;68427;48.476;19.102;2023-07-31T09:35:13;97247.31;;;32.53;28.65
79028;BME280;68427;48.476;19.102;2023-07-31T09:37:39;97255.72;;;32.76;28.67
79028;BME280;68427;48.476;19.102;2023-07-31T09:40:06;97254.75;;;34.07;27.50
79028;BME280;68427;48.476;19.102;2023-07-31T09:42:34;97243.78;;;35.01;25.55
79028;BME280;68427;48.476;19.102;2023-07-31T09:45:07;97242.66;;;35.02;26.29
79028;BME280;68427;48.476;19.102;2023-07-31T09:47:34;97244.75;;;35.81;25.56
79028;BME280;68427;48.476;19.102;2023-07-31T09:49:59;97244.47;;;36.13;24.02
79028;BME280;68427;48.476;19.102;2023-07-31T09:52:26;97245.38;;;36.92;22.32
79028;BME280;68427;48.476;19.102;2023-07-31T09:54:52;97246.50;;;36.53;23.08
79028;BME280;68427;48.476;19.102;2023-07-31T09:57:20;97251.41;;;36.71;23.91
79028;BME280;68427;48.476;19.102;2023-07-31T09:59:48;97245.31;;;35.94;25.23
79028;BME280;68427;48.476;19.102;2023-07-31T10:02:20;97245.91;;;36.07;25.25
79028;BME280;68427;48.476;19.102;2023-07-31T10:04:48;97239.84;;;35.90;25.86
79028;BME280;68427;48.476;19.102;2023-07-31T10:07:17;97247.53;;;36.42;25.16
79028;BME280;68427;48.476;19.102;2023-07-31T10:09:44;97249.56;;;36.15;23.85
79028;BME280;68427;48.476;19.102;2023-07-31T10:12:12;97245.28;;;35.18;25.69
79028;BME280;68427;48.476;19.102;2023-07-31T10:14:39;97223.81;;;34.93;25.25
79028;BME280;68427;48.476;19.102;2023-07-31T10:17:08;97236.19;;;34.68;25.84
79028;BME280;68427;48.476;19.102;2023-07-31T10:19:35;97236.53;;;34.27;26.74
79028;BME280;68427;48.476;19.102;2023-07-31T10:22:02;97233.94;;;33.64;27.17
79028;BME280;68427;48.476;19.102;2023-07-31T10:24:29;97233.75;;;33.72;27.68
79028;BME280;68427;48.476;19.102;2023-07-31T10:26:57;97230.97;;;34.04;27.06
79028;BME280;68427;48.476;19.102;2023-07-31T10:29:24;97226.38;;;34.24;27.19
79028;BME280;68427;48.476;19.102;2023-07-31T10:31:50;97223.66;;;34.63;26.05
79028;BME280;68427;48.476;19.102;2023-07-31T10:34:18;97225.63;;;34.85;25.84
79028;BME280;68427;48.476;19.102;2023-07-31T10:36:44;97216.91;;;34.57;25.95
79028;BME280;68427;48.476;19.102;2023-07-31T10:39:34;97217.50;;;34.27;25.62
79028;BME280;68427;48.476;19.102;2023-07-31T10:42:10;97217.19;;;34.13;25.87
79028;BME280;68427;48.476;19.102;2023-07-31T10:44:35;97220.91;;;34.82;25.85
79028;BME280;68427;48.476;19.102;2023-07-31T10:47:02;97209.94;;;35.44;24.10
79028;BME280;68427;48.476;19.102;2023-07-31T10:49:29;97208.84;;;36.02;22.69
79028;BME280;68427;48.476;19.102;2023-07-31T10:51:57;97212.66;;;35.98;24.24
79028;BME280;68427;48.476;19.102;2023-07-31T10:54:22;97215.19;;;36.74;24.22
79028;BME280;68427;48.476;19.102;2023-07-31T10:56:50;97215.25;;;37.18;23.42
79028;BME280;68427;48.476;19.102;2023-07-31T10:59:17;97209.56;;;36.97;22.45
79028;BME280;68427;48.476;19.102;2023-07-31T11:01:51;97210.66;;;37.30;23.33
79028;BME280;68427;48.476;19.102;2023-07-31T11:04:22;97208.81;;;37.45;22.81
79028;BME280;68427;48.476;19.102;2023-07-31T11:06:57;97199.75;;;37.37;21.75
79028;BME280;68427;48.476;19.102;2023-07-31T11:09:24;97203.03;;;37.53;21.45
79028;BME280;68427;48.476;19.102;2023-07-31T11:11:53;97204.72;;;36.12;23.46
79028;BME280;68427;48.476;19.102;2023-07-31T11:14:20;97200.03;;;35.86;23.39
79028;BME280;68427;48.476;19.102;2023-07-31T11:16:46;97197.53;;;36.30;23.90
79028;BME280;68427;48.476;19.102;2023-07-31T11:19:14;97195.44;;;36.20;23.50
79028;BME280;68427;48.476;19.102;2023-07-31T11:21:40;97192.97;;;36.42;22.55
79028;BME280;68427;48.476;19.102;2023-07-31T11:24:07;97195.13;;;35.99;22.58
79028;BME280;68427;48.476;19.102;2023-07-31T11:26:33;97188.50;;;36.26;23.22
79028;BME280;68427;48.476;19.102;2023-07-31T11:28:59;97189.84;;;36.40;23.31
79028;BME280;68427;48.476;19.102;2023-07-31T11:31:24;97187.66;;;35.92;22.42
79028;BME280;68427;48.476;19.102;2023-07-31T11:33:50;97184.16;;;36.55;22.34
79028;BME280;68427;48.476;19.102;2023-07-31T11:36:16;97181.00;;;36.53;22.27
79028;BME280;68427;48.476;19.102;2023-07-31T11:38:42;97173.34;;;36.63;22.66
79028;BME280;68427;48.476;19.102;2023-07-31T11:41:09;97179.00;;;36.47;23.18
79028;BME280;68427;48.476;19.102;2023-07-31T11:43:35;97172.84;;;35.89;23.29
79028;BME280;68427;48.476;19.102;2023-07-31T11:46:04;97176.97;;;35.53;23.46
79028;BME280;68427;48.476;19.102;2023-07-31T11:48:31;97170.38;;;35.54;23.81
79028;BME280;68427;48.476;19.102;2023-07-31T11:51:00;97179.22;;;35.47;23.42
79028;BME280;68427;48.476;19.102;2023-07-31T11:53:28;97175.16;;;34.69;24.91
79028;BME280;68427;48.476;19.102;2023-07-31T11:55:55;97165.13;;;34.53;24.83
79028;BME280;68427;48.476;19.102;2023-07-31T11:58:24;97167.91;;;34.14;24.80
79028;BME280;68427;48.476;19.102;2023-07-31T12:00:51;97164.06;;;33.99;25.67
79028;BME280;68427;48.476;19.102;2023-07-31T12:03:18;97173.03;;;33.49;26.77
79028;BME280;68427;48.476;19.102;2023-07-31T12:05:44;97166.13;;;33.51;25.60
79028;BME280;68427;48.476;19.102;2023-07-31T12:08:11;97161.66;;;33.59;26.09
79028;BME280;68427;48.476;19.102;2023-07-31T12:10:40;97164.13;;;33.01;27.86
79028;BME280;68427;48.476;19.102;2023-07-31T12:13:08;97157.41;;;32.51;27.71
79028;BME280;68427;48.476;19.102;2023-07-31T12:15:39;97157.84;;;32.40;28.80
79028;BME280;68427;48.476;19.102;2023-07-31T12:18:07;97156.09;;;32.60;27.32
79028;BME280;68427;48.476;19.102;2023-07-31T12:20:33;97148.59;;;32.69;27.63
79028;BME280;68427;48.476;19.102;2023-07-31T12:22:59;97153.03;;;32.34;26.85
79028;BME280;68427;48.476;19.102;2023-07-31T12:25:29;97144.78;;;32.02;27.82
79028;BME280;68427;48.476;19.102;2023-07-31T12:27:55;97134.91;;;31.69;27.18
79028;BME280;68427;48.476;19.102;2023-07-31T12:30:27;97132.19;;;31.81;27.21
79028;BME280;68427;48.476;19.102;2023-07-31T12:32:55;97139.88;;;31.79;26.54
79028;BME280;68427;48.476;19.102;2023-07-31T12:35:21;97133.25;;;31.52;27.96
79028;BME280;68427;48.476;19.102;2023-07-31T12:37:46;97131.47;;;31.44;28.88
79028;BME280;68427;48.476;19.102;2023-07-31T12:40:12;97133.44;;;31.84;28.06
79028;BME280;68427;48.476;19.102;2023-07-31T12:42:38;97125.88;;;31.77;27.55
79028;BME280;68427;48.476;19.102;2023-07-31T12:45:04;97123.06;;;31.74;27.65
79028;BME280;68427;48.476;19.102;2023-07-31T12:47:30;97130.22;;;31.17;27.35